Previous Day
Next Day
Current Day
SHEF ID: LVLO2 Skeleton Creek near Lovell, OK
STATION TYPE:
Regulating: Stage = 38.00, Flow = 12490
PRECIP STAGE RIV-FLOW BAT-LOAD
in ft cfs volt
Ccp-Rev Ccp-Rev Ccp-Rev Ccp-Rev
(US/Central)
07/29 00:00 0.00 8.88 19 12.40
07/29 01:00 0.00 8.87 19 12.40
07/29 02:00 0.00 8.86 19 12.37
07/29 03:00 0.04 8.82 17 12.37
07/29 04:00 0.02 8.88 19 12.36
07/29 05:00 0.06 8.88 19 12.36
07/29 06:00 0.06 8.88 19 12.34
07/29 07:00 0.21 8.87 19 12.32
07/29 08:00 0.30 8.96 22 12.31
07/29 09:00 0.04 8.98 22 12.31
07/29 10:00 0.00 8.98 22 12.44
07/29 11:00 0.05 8.96 22 12.44
07/29 12:00 0.29 9.00 23 12.57
07/29 13:00 0.06 8.99 23 12.82
07/29 14:00 0.00 8.99 23 13.28
07/29 15:00 0.00 8.99 23 13.14
07/29 16:00 0.00 9.03 24 13.08
07/29 17:00 0.00 9.03 24 13.06
07/29 18:00 0.00 9.01 24 13.05
07/29 19:00 0.00 9.02 24 12.92
07/29 20:00 0.00 9.04 25 12.76
07/29 21:00 0.00 9.03 24 12.54
07/29 22:00 0.00 9.05 25 12.44
07/29 23:00 0.00 9.10 27 12.39